createdAt,value
2018-06-17T00:02:22.620Z,17.86
2018-06-17T00:04:50.959Z,17.90
2018-06-17T00:07:19.274Z,17.90
2018-06-17T00:09:47.557Z,17.86
2018-06-17T00:12:15.831Z,17.85
2018-06-17T00:14:44.117Z,17.78
2018-06-17T00:17:12.422Z,17.79
2018-06-17T00:19:40.746Z,17.74
2018-06-17T00:22:10.104Z,17.76
2018-06-17T00:24:38.495Z,17.75
2018-06-17T00:27:06.802Z,17.74
2018-06-17T00:29:35.086Z,17.80
2018-06-17T00:32:03.362Z,17.75
2018-06-17T00:34:31.655Z,17.87
2018-06-17T00:36:59.927Z,17.86
2018-06-17T00:39:28.254Z,17.83
2018-06-17T00:41:56.538Z,17.79
2018-06-17T00:44:24.840Z,17.77
2018-06-17T00:46:53.120Z,17.77
2018-06-17T00:49:21.427Z,17.61
2018-06-17T00:51:49.681Z,17.60
2018-06-17T00:54:17.990Z,17.59
2018-06-17T00:56:56.575Z,17.69
2018-06-17T00:59:25.183Z,17.54
2018-06-17T01:01:53.473Z,17.37
2018-06-17T01:04:21.807Z,17.36
2018-06-17T01:06:50.086Z,17.20
2018-06-17T01:09:18.418Z,17.42
2018-06-17T01:11:46.710Z,17.29
2018-06-17T01:14:15.007Z,17.27
2018-06-17T01:16:43.281Z,17.38
2018-06-17T01:19:11.559Z,17.31
2018-06-17T01:21:39.885Z,17.30
2018-06-17T01:24:08.155Z,17.36
2018-06-17T01:26:36.489Z,17.46
2018-06-17T01:29:04.778Z,17.42
2018-06-17T01:31:33.055Z,17.41
2018-06-17T01:34:01.310Z,17.27
2018-06-17T01:36:29.770Z,17.33
2018-06-17T01:38:58.040Z,17.44
2018-06-17T01:41:26.311Z,17.48
2018-06-17T01:43:54.638Z,17.41
2018-06-17T01:46:22.917Z,17.47
2018-06-17T01:48:51.185Z,17.50
2018-06-17T01:51:19.482Z,17.38
2018-06-17T01:53:47.763Z,17.45
2018-06-17T01:56:16.055Z,17.25
2018-06-17T01:58:44.739Z,17.28
2018-06-17T02:01:13.022Z,17.37
2018-06-17T02:03:46.598Z,17.26
2018-06-17T02:06:20.210Z,17.14
2018-06-17T02:08:53.859Z,17.18
2018-06-17T02:11:27.390Z,17.22
2018-06-17T02:13:59.814Z,17.19
2018-06-17T02:16:28.094Z,17.19
2018-06-17T02:18:56.358Z,17.08
2018-06-17T02:21:24.769Z,17.13
2018-06-17T02:23:53.023Z,16.97
2018-06-17T02:26:21.367Z,17.00
2018-06-17T02:28:49.666Z,16.90
2018-06-17T02:31:18.348Z,16.95
2018-06-17T02:33:46.622Z,16.81
2018-06-17T02:36:14.927Z,16.87
2018-06-17T02:38:43.711Z,16.81
2018-06-17T02:41:12.011Z,16.77
2018-06-17T02:43:40.287Z,16.66
2018-06-17T02:46:13.903Z,16.82
2018-06-17T02:48:47.611Z,16.68
2018-06-17T02:51:21.194Z,16.59
2018-06-17T02:54:55.874Z,16.64
2018-06-17T02:57:24.165Z,16.67
2018-06-17T02:59:52.488Z,16.57
2018-06-17T03:02:20.980Z,16.44
2018-06-17T03:04:49.287Z,16.36
2018-06-17T03:07:17.556Z,16.34
2018-06-17T03:09:45.861Z,16.33
2018-06-17T03:12:14.134Z,16.41
2018-06-17T03:14:42.428Z,16.31
2018-06-17T03:17:10.740Z,16.44
2018-06-17T03:19:39.082Z,16.29
2018-06-17T03:22:07.383Z,16.31
2018-06-17T03:24:41.133Z,16.34
2018-06-17T03:27:14.859Z,16.26
2018-06-17T03:29:48.622Z,16.21
2018-06-17T03:32:22.169Z,16.21
2018-06-17T03:34:55.784Z,16.27
2018-06-17T03:37:24.064Z,16.30
2018-06-17T03:39:52.388Z,16.35
2018-06-17T03:42:20.667Z,16.39
2018-06-17T03:44:48.978Z,16.30
2018-06-17T03:47:17.303Z,16.29
2018-06-17T03:49:45.573Z,16.27
2018-06-17T03:52:13.870Z,16.28
2018-06-17T03:54:42.148Z,16.27
2018-06-17T03:57:10.446Z,16.33
2018-06-17T03:59:38.737Z,16.32
2018-06-17T04:02:07.250Z,16.41
2018-06-17T04:04:40.834Z,16.42
2018-06-17T04:07:09.157Z,16.40
2018-06-17T04:09:37.439Z,16.44
2018-06-17T04:12:05.738Z,16.56
2018-06-17T04:14:34.035Z,16.65
2018-06-17T04:17:06.663Z,16.41
2018-06-17T04:19:34.943Z,16.48
2018-06-17T04:22:03.351Z,16.29
2018-06-17T04:24:31.659Z,16.38
2018-06-17T04:26:59.985Z,16.37
2018-06-17T04:29:28.275Z,16.49
2018-06-17T04:31:56.594Z,16.59
2018-06-17T04:34:24.903Z,16.64
2018-06-17T04:36:53.213Z,16.63
2018-06-17T04:39:21.490Z,16.52
2018-06-17T04:41:49.794Z,16.54
2018-06-17T04:44:18.050Z,16.74
2018-06-17T04:46:46.352Z,16.67
2018-06-17T04:49:14.754Z,16.63
2018-06-17T04:51:43.037Z,16.76
2018-06-17T04:54:11.886Z,16.60
2018-06-17T04:59:20.531Z,16.75
2018-06-17T05:01:48.842Z,16.80
2018-06-17T05:04:17.206Z,16.88
2018-06-17T05:06:45.499Z,17.04
2018-06-17T05:09:13.818Z,17.14
2018-06-17T05:11:42.129Z,17.06
2018-06-17T05:14:10.393Z,17.12
2018-06-17T05:16:38.694Z,17.09
2018-06-17T05:19:07.097Z,17.19
2018-06-17T05:21:35.642Z,17.18
2018-06-17T05:24:03.917Z,17.09
2018-06-17T05:26:32.210Z,17.16
2018-06-17T05:29:00.527Z,17.10
2018-06-17T05:31:28.900Z,16.83
2018-06-17T05:33:57.175Z,16.71
2018-06-17T05:36:25.484Z,16.74
2018-06-17T05:38:53.925Z,16.71
2018-06-17T05:41:23.097Z,16.75
2018-06-17T05:43:51.378Z,16.70
2018-06-17T05:46:19.680Z,16.77
2018-06-17T05:48:48.346Z,16.66
2018-06-17T05:51:17.438Z,16.62
2018-06-17T05:53:45.719Z,16.50
2018-06-17T05:56:14.399Z,16.68
2018-06-17T05:58:43.008Z,16.50
2018-06-17T06:01:11.405Z,16.47
2018-06-17T06:03:39.816Z,16.34
2018-06-17T06:06:08.203Z,16.50
2018-06-17T06:08:36.877Z,16.62
2018-06-17T06:11:05.252Z,16.80
2018-06-17T06:13:33.527Z,16.72
2018-06-17T06:16:01.912Z,16.60
2018-06-17T06:18:31.379Z,16.85
2018-06-17T06:20:59.705Z,16.91
2018-06-17T06:23:28.145Z,17.01
2018-06-17T06:26:07.098Z,16.91
2018-06-17T06:31:16.678Z,16.92
2018-06-17T06:33:45.210Z,16.80
2018-06-17T06:36:13.669Z,16.90
2018-06-17T06:38:42.099Z,17.03
2018-06-17T06:41:10.495Z,17.09
2018-06-17T06:43:38.849Z,17.10
2018-06-17T06:46:07.171Z,17.04
2018-06-17T06:48:35.523Z,17.09
2018-06-17T06:51:03.983Z,17.32
2018-06-17T06:53:32.246Z,17.33
2018-06-17T06:56:00.726Z,17.23
2018-06-17T06:58:29.379Z,17.51
2018-06-17T07:00:57.690Z,17.25
2018-06-17T07:03:37.199Z,17.25
2018-06-17T07:06:16.954Z,17.38
2018-06-17T07:08:56.758Z,17.49
2018-06-17T07:11:25.054Z,17.66
2018-06-17T07:13:53.535Z,17.89
2018-06-17T07:16:33.235Z,17.89
2018-06-17T07:19:01.513Z,18.03
2018-06-17T07:21:30.017Z,18.07
2018-06-17T07:23:58.442Z,17.82
2018-06-17T07:26:43.263Z,17.68
2018-06-17T07:29:24.242Z,17.70
2018-06-17T07:31:52.548Z,17.73
2018-06-17T07:34:20.835Z,18.07
2018-06-17T07:36:49.221Z,18.01
2018-06-17T07:40:32.206Z,17.94
2018-06-17T07:43:00.899Z,17.83
2018-06-17T07:45:29.179Z,17.99
2018-06-17T07:47:58.286Z,17.96
2018-06-17T07:50:37.954Z,17.92
2018-06-17T07:53:17.347Z,17.81
2018-06-17T07:55:46.766Z,17.92
2018-06-17T07:58:15.742Z,18.16
2018-06-17T08:00:44.098Z,17.98
2018-06-17T08:03:12.709Z,18.04
2018-06-17T08:05:40.998Z,18.09
2018-06-17T08:08:09.410Z,18.39
2018-06-17T08:10:37.744Z,18.36
2018-06-17T08:13:06.019Z,18.38
2018-06-17T08:15:34.265Z,18.56
2018-06-17T08:18:02.545Z,18.51
2018-06-17T08:20:31.126Z,18.67
2018-06-17T08:23:12.033Z,18.83
2018-06-17T08:25:40.362Z,18.95
2018-06-17T08:28:08.706Z,19.24
2018-06-17T08:30:37.029Z,19.26
2018-06-17T08:33:05.324Z,19.40
2018-06-17T08:35:33.622Z,19.66
2018-06-17T08:38:02.037Z,19.45
2018-06-17T08:40:30.327Z,19.37
2018-06-17T08:42:58.658Z,19.21
2018-06-17T08:45:26.931Z,19.18
2018-06-17T08:47:55.230Z,19.46
2018-06-17T08:50:23.543Z,19.60
2018-06-17T08:52:52.154Z,19.48
2018-06-17T08:55:20.413Z,18.96
2018-06-17T08:57:49.459Z,19.00
2018-06-17T09:00:17.790Z,19.13
2018-06-17T09:02:46.085Z,18.77
2018-06-17T09:05:14.368Z,19.31
2018-06-17T09:07:42.660Z,19.21
2018-06-17T09:10:10.982Z,19.06
2018-06-17T09:12:39.279Z,19.16
2018-06-17T09:15:07.691Z,19.13
2018-06-17T09:17:36.028Z,18.94
2018-06-17T09:20:04.295Z,19.23
2018-06-17T09:22:32.585Z,19.08
2018-06-17T09:25:00.830Z,19.16
2018-06-17T09:27:29.125Z,19.57
2018-06-17T09:29:57.489Z,19.53
2018-06-17T09:32:25.781Z,19.42
2018-06-17T09:34:54.288Z,19.71
2018-06-17T09:37:22.578Z,19.94
2018-06-17T09:39:50.919Z,19.96
2018-06-17T09:42:19.229Z,19.57
2018-06-17T09:44:47.708Z,19.62
2018-06-17T09:47:16.008Z,20.24
2018-06-17T09:49:44.478Z,20.48
2018-06-17T09:52:12.813Z,20.61
2018-06-17T09:54:41.065Z,20.38
2018-06-17T09:57:09.634Z,20.54
2018-06-17T09:59:38.028Z,20.63
2018-06-17T10:02:06.322Z,20.53
2018-06-17T10:04:34.625Z,20.69
2018-06-17T10:07:02.953Z,20.50
2018-06-17T10:09:31.398Z,20.65
2018-06-17T10:11:59.690Z,20.41
2018-06-17T10:14:27.987Z,20.59
2018-06-17T10:16:56.277Z,20.12
2018-06-17T10:19:24.538Z,20.48
2018-06-17T10:24:46.076Z,20.97
2018-06-17T10:27:14.403Z,20.79
2018-06-17T10:29:42.731Z,20.84
2018-06-17T10:32:11.351Z,20.97
2018-06-17T10:34:39.597Z,21.86
2018-06-17T10:37:07.881Z,21.95
2018-06-17T10:39:36.145Z,20.92
2018-06-17T10:42:04.461Z,20.65
2018-06-17T10:44:32.739Z,20.54
2018-06-17T10:47:01.030Z,20.52
2018-06-17T10:49:29.279Z,20.23
2018-06-17T10:51:57.642Z,20.40
2018-06-17T10:54:25.963Z,20.59
2018-06-17T10:56:54.242Z,21.37
2018-06-17T10:59:22.804Z,21.05
2018-06-17T11:01:51.134Z,21.20
2018-06-17T11:04:19.416Z,21.01
2018-06-17T11:06:50.182Z,21.46
2018-06-17T11:09:18.692Z,21.51
2018-06-17T11:11:46.999Z,21.70
2018-06-17T11:14:15.406Z,21.31
2018-06-17T11:16:43.703Z,21.86
2018-06-17T11:19:11.967Z,21.51
2018-06-17T11:21:40.337Z,21.71
2018-06-17T11:24:08.714Z,21.50
2018-06-17T11:26:37.088Z,21.01
2018-06-17T11:29:05.435Z,20.89
2018-06-17T11:31:34.037Z,20.84
2018-06-17T11:34:02.330Z,20.74
2018-06-17T11:36:30.710Z,20.99
2018-06-17T11:38:59.060Z,21.27
2018-06-17T11:41:28.330Z,21.17
2018-06-17T11:43:56.665Z,21.26
2018-06-17T11:46:25.859Z,21.17
2018-06-17T11:48:54.294Z,21.39
2018-06-17T11:51:22.564Z,21.72
2018-06-17T11:53:50.907Z,21.52
2018-06-17T11:56:19.278Z,21.60
2018-06-17T11:58:47.671Z,21.62
2018-06-17T12:01:15.948Z,21.69
2018-06-17T12:03:44.352Z,21.71
2018-06-17T12:06:12.683Z,21.75
2018-06-17T12:08:41.030Z,21.33
2018-06-17T12:11:09.278Z,21.12
2018-06-17T12:13:37.550Z,20.66
2018-06-17T12:16:05.811Z,20.81
2018-06-17T12:18:34.107Z,20.93
2018-06-17T12:21:02.405Z,21.00
2018-06-17T12:23:30.688Z,21.29
2018-06-17T12:25:59.038Z,21.57
2018-06-17T12:28:27.338Z,21.62
2018-06-17T12:30:55.618Z,21.32
2018-06-17T12:33:23.936Z,21.43
2018-06-17T12:35:52.287Z,21.07
2018-06-17T12:38:21.062Z,21.13
2018-06-17T12:40:49.449Z,21.55
2018-06-17T12:43:17.755Z,21.55
2018-06-17T12:45:46.071Z,21.59
2018-06-17T12:48:14.392Z,21.47
2018-06-17T12:50:42.784Z,21.42
2018-06-17T12:53:11.245Z,21.82
2018-06-17T12:55:39.535Z,21.98
2018-06-17T12:58:07.854Z,21.64
2018-06-17T13:00:36.189Z,21.90
2018-06-17T13:03:04.559Z,21.44
2018-06-17T13:05:32.874Z,21.46
2018-06-17T13:08:01.544Z,21.48
2018-06-17T13:10:29.818Z,21.80
2018-06-17T13:12:58.467Z,21.85
2018-06-17T13:15:26.782Z,21.38
2018-06-17T13:17:55.101Z,21.70
2018-06-17T13:20:23.476Z,21.88
2018-06-17T13:22:51.744Z,22.16
2018-06-17T13:25:20.479Z,22.02
2018-06-17T13:27:48.909Z,21.74
2018-06-17T13:30:17.237Z,21.77
2018-06-17T13:32:45.583Z,21.92
2018-06-17T13:35:13.950Z,22.53
2018-06-17T13:37:42.246Z,22.01
2018-06-17T13:40:13.124Z,21.59
2018-06-17T13:42:41.761Z,21.19
2018-06-17T13:45:10.096Z,21.15
2018-06-17T13:47:38.393Z,21.40
2018-06-17T13:50:06.655Z,21.35
2018-06-17T13:52:34.898Z,21.16
2018-06-17T13:55:03.330Z,21.12
2018-06-17T13:57:31.667Z,21.18
2018-06-17T14:00:00.025Z,21.12
2018-06-17T14:02:28.509Z,21.22
2018-06-17T14:04:56.819Z,21.20
2018-06-17T14:07:25.158Z,21.11
2018-06-17T14:09:53.604Z,21.51
2018-06-17T14:12:21.941Z,21.48
2018-06-17T14:14:50.522Z,21.70
2018-06-17T14:17:20.837Z,22.03
2018-06-17T14:19:49.176Z,21.83
2018-06-17T14:22:17.472Z,21.51
2018-06-17T14:24:46.239Z,21.78
2018-06-17T14:27:14.542Z,21.35
2018-06-17T14:29:42.947Z,21.36
2018-06-17T14:32:11.446Z,21.35
2018-06-17T14:34:39.776Z,21.67
2018-06-17T14:37:08.060Z,21.85
2018-06-17T14:39:36.432Z,21.72
2018-06-17T14:42:10.068Z,21.74
2018-06-17T14:44:43.563Z,21.68
2018-06-17T14:47:17.235Z,21.56
2018-06-17T14:49:50.741Z,21.31
2018-06-17T14:52:20.946Z,21.44
2018-06-17T14:54:49.253Z,21.57
2018-06-17T14:57:17.560Z,21.77
2018-06-17T14:59:46.091Z,21.82
2018-06-17T15:02:14.498Z,21.39
2018-06-17T15:04:42.776Z,21.08
2018-06-17T15:07:11.086Z,21.24
2018-06-17T15:09:39.379Z,21.18
2018-06-17T15:12:07.712Z,20.68
2018-06-17T15:14:35.967Z,20.84
2018-06-17T15:17:04.223Z,20.89
2018-06-17T15:19:32.502Z,20.73
2018-06-17T15:22:00.851Z,20.87
2018-06-17T15:24:29.150Z,21.09
2018-06-17T15:26:57.425Z,21.09
2018-06-17T15:29:26.507Z,20.83
2018-06-17T15:32:00.261Z,20.83
2018-06-17T15:34:33.798Z,21.08
2018-06-17T15:37:07.589Z,21.41
2018-06-17T15:39:41.101Z,21.17
2018-06-17T15:42:09.405Z,20.79
2018-06-17T15:44:37.764Z,21.04
2018-06-17T15:47:06.140Z,20.79
2018-06-17T15:49:34.554Z,20.90
2018-06-17T15:52:02.868Z,20.88
2018-06-17T15:54:31.149Z,20.78
2018-06-17T15:56:59.527Z,20.77
2018-06-17T15:59:27.893Z,20.58
2018-06-17T16:01:56.251Z,20.62
2018-06-17T16:04:24.514Z,20.56
2018-06-17T16:06:52.810Z,20.60
2018-06-17T16:09:21.122Z,20.70
2018-06-17T16:12:57.753Z,20.54
2018-06-17T16:15:31.626Z,20.33
2018-06-17T16:18:05.461Z,20.10
2018-06-17T16:20:39.544Z,20.31
2018-06-17T16:23:07.952Z,20.24
2018-06-17T16:25:36.255Z,20.03
2018-06-17T16:28:04.641Z,20.14
2018-06-17T16:30:32.926Z,20.17
2018-06-17T16:33:01.250Z,19.98
2018-06-17T16:35:29.635Z,20.23
2018-06-17T16:37:58.221Z,20.24
2018-06-17T16:40:26.682Z,20.14
2018-06-17T16:42:55.806Z,19.98
2018-06-17T16:45:24.151Z,20.11
2018-06-17T16:47:52.975Z,20.12
2018-06-17T16:50:21.348Z,20.01
2018-06-17T16:52:55.082Z,20.10
2018-06-17T16:55:28.793Z,20.18
2018-06-17T17:00:30.027Z,20.05
2018-06-17T17:02:58.314Z,20.21
2018-06-17T17:05:26.584Z,20.08
2018-06-17T17:07:55.010Z,20.35
2018-06-17T17:10:23.314Z,20.59
2018-06-17T17:12:51.622Z,20.61
2018-06-17T17:15:20.039Z,20.81
2018-06-17T17:17:48.409Z,20.50
2018-06-17T17:20:16.664Z,20.48
2018-06-17T17:22:45.017Z,20.59
2018-06-17T17:25:13.314Z,20.85
2018-06-17T17:27:41.730Z,20.40
2018-06-17T17:30:10.127Z,20.12
2018-06-17T17:32:43.819Z,20.13
2018-06-17T17:35:17.362Z,20.20
2018-06-17T17:37:51.130Z,20.04
2018-06-17T17:40:25.090Z,19.81
2018-06-17T17:42:53.549Z,19.67
2018-06-17T17:45:24.146Z,19.59
2018-06-17T17:47:52.595Z,19.71
2018-06-17T17:50:22.113Z,19.71
2018-06-17T17:52:50.648Z,19.77
2018-06-17T17:55:19.117Z,19.88
2018-06-17T17:57:47.730Z,19.72
2018-06-17T18:00:16.211Z,19.76
2018-06-17T18:02:44.649Z,19.75
2018-06-17T18:05:13.355Z,19.81
2018-06-17T18:07:41.799Z,19.63
2018-06-17T18:10:10.296Z,19.61
2018-06-17T18:12:38.900Z,19.35
2018-06-17T18:15:07.498Z,19.38
2018-06-17T18:17:35.779Z,19.35
2018-06-17T18:20:04.207Z,19.31
2018-06-17T18:22:32.653Z,19.19
2018-06-17T18:25:06.460Z,19.38
2018-06-17T18:27:40.246Z,19.24
2018-06-17T18:30:14.082Z,19.19
2018-06-17T18:32:47.775Z,19.04
2018-06-17T18:35:22.108Z,19.05
2018-06-17T18:37:50.379Z,18.99
2018-06-17T18:40:18.759Z,18.89
2018-06-17T18:42:47.102Z,18.98
2018-06-17T18:45:15.362Z,18.89
2018-06-17T18:47:43.694Z,18.90
2018-06-17T18:50:12.755Z,18.92
2018-06-17T18:52:41.505Z,18.83
2018-06-17T18:55:09.911Z,18.69
2018-06-17T18:57:38.218Z,18.66
2018-06-17T19:00:07.223Z,18.55
2018-06-17T19:02:35.506Z,18.62
2018-06-17T19:05:04.091Z,18.56
2018-06-17T19:07:32.409Z,18.60
2018-06-17T19:10:06.048Z,18.42
2018-06-17T19:12:39.960Z,18.41
2018-06-17T19:15:14.384Z,18.33
2018-06-17T19:18:14.858Z,18.41
2018-06-17T19:20:43.416Z,18.46
2018-06-17T19:23:11.930Z,18.31
2018-06-17T19:25:40.204Z,18.31
2018-06-17T19:28:08.516Z,18.35
2018-06-17T19:30:36.864Z,18.34
2018-06-17T19:33:05.597Z,18.31
2018-06-17T19:35:33.936Z,18.19
2018-06-17T19:38:02.246Z,18.07
2018-06-17T19:40:30.622Z,18.12
2018-06-17T19:42:58.899Z,18.02
2018-06-17T19:45:27.788Z,18.23
2018-06-17T19:47:56.226Z,18.01
2018-06-17T19:50:29.969Z,18.02
2018-06-17T19:54:04.850Z,18.12
2018-06-17T19:56:38.583Z,18.00
2018-06-17T19:59:12.164Z,18.11
2018-06-17T20:01:40.456Z,18.04
2018-06-17T20:04:16.138Z,17.95
2018-06-17T20:06:44.854Z,17.78
2018-06-17T20:09:14.009Z,17.87
2018-06-17T20:11:42.652Z,17.72
2018-06-17T20:14:11.377Z,17.76
2018-06-17T20:16:39.859Z,17.69
2018-06-17T20:19:08.400Z,17.74
2018-06-17T20:21:36.892Z,17.79
2018-06-17T20:24:05.230Z,17.61
2018-06-17T20:26:34.030Z,17.69
2018-06-17T20:29:02.861Z,17.78
2018-06-17T20:31:31.298Z,17.76
2018-06-17T20:34:05.050Z,17.74
2018-06-17T20:36:38.734Z,17.77
2018-06-17T20:39:13.910Z,17.57
2018-06-17T20:41:47.706Z,17.70
2018-06-17T20:44:16.366Z,17.72
2018-06-17T20:46:44.639Z,17.58
2018-06-17T20:49:13.784Z,17.82
2018-06-17T20:51:42.064Z,17.58
2018-06-17T20:54:10.491Z,17.49
2018-06-17T20:56:39.335Z,17.50
2018-06-17T20:59:07.631Z,17.29
2018-06-17T21:01:35.881Z,17.30
2018-06-17T21:04:04.975Z,17.20
2018-06-17T21:06:34.360Z,17.23
2018-06-17T21:09:02.732Z,17.35
2018-06-17T21:11:31.018Z,17.20
2018-06-17T21:13:59.630Z,17.22
2018-06-17T21:16:28.040Z,16.98
2018-06-17T21:19:01.792Z,17.04
2018-06-17T21:21:35.795Z,16.93
2018-06-17T21:24:09.777Z,16.84
2018-06-17T21:26:43.434Z,16.79
2018-06-17T21:29:11.739Z,16.85
2018-06-17T21:31:40.019Z,16.89
2018-06-17T21:34:08.478Z,16.83
2018-06-17T21:36:36.774Z,16.84
2018-06-17T21:39:07.506Z,17.03
2018-06-17T21:41:36.325Z,17.10
2018-06-17T21:44:04.627Z,17.18
2018-06-17T21:46:33.195Z,17.19
2018-06-17T21:49:01.743Z,17.14
2018-06-17T21:51:30.050Z,17.24
2018-06-17T21:53:58.348Z,17.12
2018-06-17T21:56:26.639Z,17.21
2018-06-17T21:58:54.973Z,17.10
2018-06-17T22:01:23.422Z,17.05
2018-06-17T22:03:51.750Z,16.93
2018-06-17T22:06:20.054Z,16.95
2018-06-17T22:08:53.807Z,16.87
2018-06-17T22:11:27.419Z,16.83
2018-06-17T22:14:01.062Z,16.88
2018-06-17T22:17:37.463Z,16.85
2018-06-17T22:20:05.811Z,16.82
2018-06-17T22:22:34.150Z,16.64
2018-06-17T22:25:02.524Z,16.71
2018-06-17T22:27:30.811Z,16.66
2018-06-17T22:29:59.090Z,16.57
2018-06-17T22:32:27.682Z,16.54
2018-06-17T22:34:56.079Z,16.56
2018-06-17T22:37:24.373Z,16.60
2018-06-17T22:39:52.709Z,16.48
2018-06-17T22:42:21.003Z,16.55
2018-06-17T22:44:49.274Z,16.40
2018-06-17T22:47:22.990Z,16.35
2018-06-17T22:49:51.371Z,16.35
2018-06-17T22:52:19.663Z,16.45
2018-06-17T22:54:49.771Z,16.42
2018-06-17T22:57:23.482Z,16.41
2018-06-17T22:59:57.012Z,16.36
2018-06-17T23:02:30.830Z,16.30
2018-06-17T23:05:04.520Z,16.22
2018-06-17T23:07:38.135Z,16.13
2018-06-17T23:10:08.359Z,16.28
2018-06-17T23:12:36.663Z,16.24
2018-06-17T23:15:11.649Z,16.06
2018-06-17T23:17:39.955Z,16.17
2018-06-17T23:20:08.258Z,16.10
2018-06-17T23:22:36.562Z,16.12
2018-06-17T23:25:04.837Z,16.16
2018-06-17T23:27:33.257Z,16.03
2018-06-17T23:30:01.567Z,16.05
2018-06-17T23:32:29.902Z,16.01
2018-06-17T23:34:58.342Z,16.01
2018-06-17T23:37:26.667Z,15.91
2018-06-17T23:39:55.133Z,15.98
2018-06-17T23:42:23.433Z,15.95
2018-06-17T23:44:51.737Z,15.88
2018-06-17T23:47:25.243Z,15.84
2018-06-17T23:49:58.797Z,15.85
2018-06-17T23:52:32.593Z,15.89
2018-06-17T23:55:06.188Z,15.78
2018-06-17T23:57:34.494Z,15.88
